createdAt,value
2018-11-28T00:00:37.467Z,22.63
2018-11-28T00:03:07.827Z,23.10
2018-11-28T00:05:36.262Z,22.83
2018-11-28T00:08:04.750Z,24.10
2018-11-28T00:10:33.154Z,22.97
2018-11-28T00:13:01.527Z,25.30
2018-11-28T00:15:29.948Z,23.57
2018-11-28T00:17:58.674Z,23.07
2018-11-28T00:20:27.071Z,23.57
2018-11-28T00:22:55.461Z,23.43
2018-11-28T00:25:23.855Z,23.80
2018-11-28T00:27:52.250Z,24.47
2018-11-28T00:30:23.075Z,23.80
2018-11-28T00:32:51.486Z,23.13
2018-11-28T00:35:21.934Z,24.23
2018-11-28T00:37:50.324Z,23.50
2018-11-28T00:40:21.126Z,23.33
2018-11-28T00:42:49.582Z,25.10
2018-11-28T00:45:19.720Z,25.17
2018-11-28T00:47:48.174Z,23.57
2018-11-28T00:50:18.671Z,24.87
2018-11-28T00:52:47.142Z,24.60
2018-11-28T00:55:16.394Z,25.00
2018-11-28T00:57:45.042Z,24.57
2018-11-28T01:00:14.908Z,24.93
2018-11-28T01:02:43.555Z,24.63
2018-11-28T01:05:12.554Z,24.43
2018-11-28T01:07:42.275Z,25.07
2018-11-28T01:10:14.458Z,25.30
2018-11-28T01:12:42.842Z,24.57
2018-11-28T01:15:12.899Z,24.07
2018-11-28T01:17:41.291Z,25.03
2018-11-28T01:20:12.939Z,24.03
2018-11-28T01:22:41.398Z,24.77
2018-11-28T01:25:17.967Z,25.57
2018-11-28T01:27:46.388Z,23.80
2018-11-28T01:30:18.004Z,24.70
2018-11-28T01:32:46.732Z,25.37
2018-11-28T01:35:17.216Z,24.30
2018-11-28T01:37:45.814Z,25.90
2018-11-28T01:40:21.591Z,24.47
2018-11-28T01:42:50.001Z,26.70
2018-11-28T01:45:19.382Z,25.83
2018-11-28T01:47:47.841Z,25.07
2018-11-28T01:50:17.344Z,24.53
2018-11-28T01:52:45.798Z,24.87
2018-11-28T01:55:17.113Z,25.00
2018-11-28T01:57:45.514Z,25.13
2018-11-28T02:00:18.115Z,26.37
2018-11-28T02:02:47.181Z,25.07
2018-11-28T02:05:15.555Z,23.70
2018-11-28T02:07:43.959Z,23.70
2018-11-28T02:10:13.574Z,24.47
2018-11-28T02:12:41.986Z,25.00
2018-11-28T02:15:12.425Z,24.53
2018-11-28T02:17:40.830Z,24.70
2018-11-28T02:20:10.781Z,23.70
2018-11-28T02:22:39.284Z,23.50
2018-11-28T02:25:13.727Z,22.70
2018-11-28T02:27:42.188Z,24.77
2018-11-28T02:30:15.333Z,23.30
2018-11-28T02:32:44.096Z,22.50
2018-11-28T02:35:13.482Z,23.40
2018-11-28T02:37:42.025Z,22.33
2018-11-28T02:40:11.495Z,23.53
2018-11-28T02:42:39.883Z,22.33
2018-11-28T02:45:12.354Z,23.83
2018-11-28T02:47:40.750Z,22.60
2018-11-28T02:50:09.362Z,21.40
2018-11-28T02:52:37.767Z,21.53
2018-11-28T02:55:08.351Z,22.47
2018-11-28T02:57:36.743Z,22.53
2018-11-28T03:00:22.271Z,22.10
2018-11-28T03:02:50.832Z,22.93
2018-11-28T03:05:19.495Z,20.80
2018-11-28T03:07:47.963Z,22.30
2018-11-28T03:10:18.440Z,20.83
2018-11-28T03:12:49.279Z,21.70
2018-11-28T03:15:22.784Z,22.00
2018-11-28T03:17:51.324Z,20.83
2018-11-28T03:20:19.733Z,22.10
2018-11-28T03:22:48.107Z,21.13
2018-11-28T03:25:16.498Z,19.63
2018-11-28T03:27:44.881Z,20.80
2018-11-28T03:30:14.520Z,21.33
2018-11-28T03:32:42.927Z,20.00
2018-11-28T03:35:13.583Z,20.40
2018-11-28T03:37:42.068Z,20.50
2018-11-28T03:40:10.555Z,21.17
2018-11-28T03:42:38.932Z,21.53
2018-11-28T03:45:11.651Z,20.23
2018-11-28T03:47:40.069Z,21.77
2018-11-28T03:50:09.895Z,20.20
2018-11-28T03:52:39.015Z,20.43
2018-11-28T03:55:10.855Z,21.63
2018-11-28T03:57:39.250Z,21.07
2018-11-28T04:00:13.083Z,21.33
2018-11-28T04:02:41.494Z,19.70
2018-11-28T04:05:10.227Z,21.60
2018-11-28T04:07:38.935Z,20.20
2018-11-28T04:10:09.621Z,20.37
2018-11-28T04:12:38.163Z,20.43
2018-11-28T04:15:09.835Z,20.30
2018-11-28T04:17:38.217Z,20.93
2018-11-28T04:20:09.199Z,20.87
2018-11-28T04:22:37.609Z,20.90
2018-11-28T04:25:07.082Z,21.13
2018-11-28T04:27:35.487Z,19.83
2018-11-28T04:30:04.197Z,19.50
2018-11-28T04:32:32.639Z,20.77
2018-11-28T04:35:01.042Z,21.07
2018-11-28T04:37:29.431Z,21.30
2018-11-28T04:39:57.826Z,20.37
2018-11-28T04:42:26.203Z,19.77
2018-11-28T04:44:54.579Z,20.20
2018-11-28T04:47:22.948Z,24.33
2018-11-28T04:49:51.340Z,21.50
2018-11-28T04:52:19.728Z,20.87
2018-11-28T04:54:48.115Z,21.07
2018-11-28T04:57:16.557Z,21.93
2018-11-28T04:59:44.932Z,20.77
2018-11-28T05:02:13.303Z,22.53
2018-11-28T05:04:41.695Z,21.37
2018-11-28T05:07:26.828Z,21.47
2018-11-28T05:09:55.320Z,22.17
2018-11-28T05:12:23.707Z,21.77
2018-11-28T05:14:52.268Z,24.37
2018-11-28T05:17:20.697Z,23.17
2018-11-28T05:19:49.233Z,23.00
2018-11-28T05:22:17.600Z,35.53
2018-11-28T05:24:46.391Z,25.33
2018-11-28T05:27:14.763Z,26.43
2018-11-28T05:29:43.151Z,24.50
2018-11-28T05:32:11.555Z,25.43
2018-11-28T05:34:39.956Z,25.97
2018-11-28T05:37:08.361Z,26.43
2018-11-28T05:39:36.747Z,27.00
2018-11-28T05:42:05.649Z,25.53
2018-11-28T05:44:34.044Z,26.40
2018-11-28T05:47:02.438Z,26.27
2018-11-28T05:49:30.813Z,26.20
2018-11-28T05:51:59.186Z,26.90
2018-11-28T05:54:27.797Z,26.23
2018-11-28T05:56:56.210Z,26.43
2018-11-28T05:59:27.365Z,26.27
2018-11-28T06:01:53.066Z,26.93
2018-11-28T06:04:21.450Z,26.13
2018-11-28T06:06:50.012Z,26.03
2018-11-28T06:09:18.387Z,25.50
2018-11-28T06:11:46.780Z,26.67
2018-11-28T06:14:15.171Z,25.87
2018-11-28T06:16:43.584Z,26.77
2018-11-28T06:19:11.998Z,25.87
2018-11-28T06:21:40.387Z,25.40
2018-11-28T06:24:08.785Z,26.27
2018-11-28T06:26:37.190Z,24.53
2018-11-28T06:29:06.162Z,25.67
2018-11-28T06:31:34.567Z,24.00
2018-11-28T06:34:02.925Z,24.63
2018-11-28T06:36:31.334Z,25.43
2018-11-28T06:38:59.713Z,25.07
2018-11-28T06:41:28.112Z,25.07
2018-11-28T06:43:56.511Z,23.73
2018-11-28T06:46:24.912Z,23.77
2018-11-28T06:48:53.682Z,25.53
2018-11-28T06:51:22.062Z,24.20
2018-11-28T06:53:50.471Z,24.87
2018-11-28T06:56:18.914Z,24.20
2018-11-28T06:58:47.318Z,24.53
2018-11-28T07:01:15.721Z,23.77
2018-11-28T07:03:44.082Z,23.60
2018-11-28T07:06:12.449Z,23.87
2018-11-28T07:08:40.979Z,23.90
2018-11-28T07:11:09.355Z,24.17
2018-11-28T07:13:37.743Z,23.77
2018-11-28T07:16:06.196Z,23.23
2018-11-28T07:18:45.912Z,24.27
2018-11-28T07:21:14.306Z,25.23
2018-11-28T07:23:42.695Z,24.10
2018-11-28T07:26:11.067Z,26.50
2018-11-28T07:28:39.467Z,25.00
2018-11-28T07:31:07.903Z,24.30
2018-11-28T07:33:36.318Z,24.77
2018-11-28T07:36:04.755Z,25.87
2018-11-28T07:38:33.179Z,27.23
2018-11-28T07:41:01.570Z,24.60
2018-11-28T07:43:29.971Z,24.67
2018-11-28T07:45:58.448Z,24.47
2018-11-28T07:48:26.818Z,24.97
2018-11-28T07:50:55.203Z,24.53
2018-11-28T07:53:23.599Z,24.07
2018-11-28T07:55:51.754Z,24.33
2018-11-28T07:58:19.887Z,24.47
2018-11-28T08:00:48.031Z,23.97
2018-11-28T08:03:16.419Z,23.77
2018-11-28T08:05:44.811Z,23.40
2018-11-28T08:08:13.328Z,22.30
2018-11-28T08:10:41.726Z,22.90
2018-11-28T08:13:11.131Z,23.43
2018-11-28T08:15:39.552Z,22.77
2018-11-28T08:18:08.148Z,23.53
2018-11-28T08:20:36.556Z,23.30
2018-11-28T08:23:05.013Z,22.90
2018-11-28T08:25:33.568Z,24.53
2018-11-28T08:28:02.055Z,22.53
2018-11-28T08:30:30.491Z,23.20
2018-11-28T08:32:58.867Z,21.87
2018-11-28T08:35:27.311Z,21.43
2018-11-28T08:37:55.747Z,20.73
2018-11-28T08:40:25.326Z,21.90
2018-11-28T08:42:55.682Z,20.73
2018-11-28T08:45:24.075Z,21.60
2018-11-28T08:47:53.752Z,21.10
2018-11-28T08:50:25.662Z,21.03
2018-11-28T08:52:53.857Z,22.73
2018-11-28T08:55:22.289Z,22.43
2018-11-28T08:57:51.530Z,23.43
2018-11-28T09:00:23.584Z,22.10
2018-11-28T09:02:54.045Z,22.57
2018-11-28T09:05:22.462Z,24.60
2018-11-28T09:07:51.007Z,24.40
2018-11-28T09:10:20.124Z,21.87
2018-11-28T09:12:49.660Z,27.57
2018-11-28T09:15:21.147Z,24.53
2018-11-28T09:17:49.529Z,23.83
2018-11-28T09:20:17.999Z,23.97
2018-11-28T09:22:46.407Z,23.90
2018-11-28T09:25:15.790Z,23.70
2018-11-28T09:27:45.273Z,23.67
2018-11-28T09:30:17.686Z,23.87
2018-11-28T09:32:46.764Z,24.63
2018-11-28T09:35:15.563Z,24.97
2018-11-28T09:37:45.797Z,25.47
2018-11-28T09:40:14.675Z,24.77
2018-11-28T09:42:43.069Z,23.67
2018-11-28T09:45:12.801Z,24.27
2018-11-28T09:47:41.253Z,24.80
2018-11-28T09:50:11.758Z,26.50
2018-11-28T09:52:40.202Z,25.40
2018-11-28T09:55:13.318Z,25.00
2018-11-28T09:57:41.729Z,24.40
2018-11-28T10:00:14.536Z,25.53
2018-11-28T10:02:42.968Z,24.77
2018-11-28T10:05:13.741Z,26.30
2018-11-28T10:07:42.178Z,25.20
2018-11-28T10:10:11.919Z,25.00
2018-11-28T10:12:40.331Z,26.30
2018-11-28T10:15:11.985Z,24.97
2018-11-28T10:17:40.411Z,25.33
2018-11-28T10:20:10.327Z,26.17
2018-11-28T10:22:39.012Z,24.43
2018-11-28T10:25:10.035Z,25.10
2018-11-28T10:27:38.419Z,25.00
2018-11-28T10:30:39.130Z,24.73
2018-11-28T10:33:12.279Z,28.27
2018-11-28T10:35:41.305Z,23.87
2018-11-28T10:38:09.882Z,24.90
2018-11-28T10:40:38.414Z,26.93
2018-11-28T10:43:08.651Z,23.73
2018-11-28T10:45:37.241Z,23.27
2018-11-28T10:48:06.664Z,24.80
2018-11-28T10:50:35.067Z,23.70
2018-11-28T10:53:03.500Z,25.00
2018-11-28T10:55:31.911Z,24.10
2018-11-28T10:58:00.339Z,23.57
2018-11-28T11:00:35.876Z,23.73
2018-11-28T11:03:10.913Z,23.10
2018-11-28T11:05:45.384Z,24.20
2018-11-28T11:08:19.255Z,24.37
2018-11-28T11:10:53.099Z,23.43
2018-11-28T11:13:26.897Z,24.07
2018-11-28T11:15:55.865Z,23.80
2018-11-28T11:18:24.658Z,25.03
2018-11-28T11:20:53.107Z,23.17
2018-11-28T11:23:21.525Z,24.10
2018-11-28T11:25:50.132Z,24.03
2018-11-28T11:28:19.764Z,23.60
2018-11-28T11:30:48.237Z,25.23
2018-11-28T11:33:16.709Z,25.83
2018-11-28T11:35:45.165Z,26.07
2018-11-28T11:38:13.574Z,25.50
2018-11-28T11:40:41.999Z,24.43
2018-11-28T11:43:10.672Z,25.37
2018-11-28T11:45:39.673Z,25.50
2018-11-28T11:48:07.572Z,26.43
2018-11-28T11:50:36.112Z,26.13
2018-11-28T11:53:04.948Z,26.47
2018-11-28T11:55:33.942Z,27.10
2018-11-28T11:58:01.773Z,26.07
2018-11-28T12:00:30.198Z,25.57
2018-11-28T12:03:07.318Z,25.67
2018-11-28T12:05:35.840Z,24.50
2018-11-28T12:08:04.315Z,25.40
2018-11-28T12:10:32.705Z,25.80
2018-11-28T12:13:01.160Z,26.87
2018-11-28T12:15:30.067Z,26.03
2018-11-28T12:17:59.195Z,25.17
2018-11-28T12:20:37.186Z,24.87
2018-11-28T12:23:05.959Z,23.23
2018-11-28T12:25:34.537Z,24.70
2018-11-28T12:28:02.966Z,23.20
2018-11-28T12:30:31.375Z,24.30
2018-11-28T12:32:59.805Z,23.40
2018-11-28T12:35:28.208Z,24.23
2018-11-28T12:37:57.274Z,24.17
2018-11-28T12:41:48.828Z,23.17
2018-11-28T12:44:17.318Z,22.60
2018-11-28T12:46:45.740Z,23.33
2018-11-28T12:49:14.139Z,24.13
2018-11-28T12:51:42.613Z,22.77
2018-11-28T12:54:11.731Z,22.90
2018-11-28T12:56:40.140Z,22.30
2018-11-28T12:59:08.576Z,21.90
2018-11-28T13:01:37.052Z,20.60
2018-11-28T13:04:06.238Z,24.30
2018-11-28T13:06:34.627Z,22.27
2018-11-28T13:09:03.043Z,22.90
2018-11-28T13:11:31.460Z,20.27
2018-11-28T13:13:59.832Z,23.90
2018-11-28T13:16:28.338Z,22.80
2018-11-28T13:18:56.803Z,22.37
2018-11-28T13:21:25.315Z,22.10
2018-11-28T13:23:53.706Z,21.93
2018-11-28T13:26:22.122Z,20.77
2018-11-28T13:28:50.556Z,21.97
2018-11-28T13:31:18.994Z,20.63
2018-11-28T13:33:47.433Z,21.67
2018-11-28T13:36:15.847Z,21.30
2018-11-28T13:38:44.260Z,21.13
2018-11-28T13:41:12.667Z,21.10
2018-11-28T13:43:41.116Z,20.63
2018-11-28T13:46:09.566Z,21.43
2018-11-28T13:48:37.990Z,21.47
2018-11-28T13:51:06.418Z,20.10
2018-11-28T13:53:34.844Z,21.07
2018-11-28T13:58:31.684Z,20.53
2018-11-28T14:01:00.107Z,20.33
2018-11-28T14:03:28.514Z,20.73
2018-11-28T14:05:57.023Z,20.13
2018-11-28T14:08:25.427Z,19.93
2018-11-28T14:10:53.984Z,20.80
2018-11-28T14:13:22.405Z,21.00
2018-11-28T14:15:50.828Z,20.57
2018-11-28T14:18:20.731Z,19.80
2018-11-28T14:20:49.187Z,20.80
2018-11-28T14:23:18.011Z,19.93
2018-11-28T14:25:46.403Z,20.60
2018-11-28T14:28:14.878Z,19.90
2018-11-28T14:30:44.500Z,19.47
2018-11-28T14:33:12.921Z,20.97
2018-11-28T14:35:41.371Z,20.23
2018-11-28T14:38:09.845Z,20.30
2018-11-28T14:40:38.274Z,19.47
2018-11-28T14:43:07.983Z,20.20
2018-11-28T14:45:36.907Z,20.43
2018-11-28T14:48:05.376Z,21.77
2018-11-28T14:50:33.787Z,21.87
2018-11-28T14:53:03.077Z,22.63
2018-11-28T14:55:35.590Z,22.47
2018-11-28T14:58:04.828Z,22.07
2018-11-28T15:00:33.563Z,23.27
2018-11-28T15:03:19.147Z,22.70
2018-11-28T15:05:54.989Z,22.63
2018-11-28T15:08:23.767Z,24.23
2018-11-28T15:11:05.007Z,25.43
2018-11-28T15:13:33.503Z,24.03
2018-11-28T15:16:02.159Z,23.53
2018-11-28T15:18:30.567Z,23.80
2018-11-28T15:20:59.030Z,23.90
2018-11-28T15:23:27.427Z,23.40
2018-11-28T15:25:55.903Z,24.20
2018-11-28T15:28:24.289Z,23.53
2018-11-28T15:30:52.835Z,23.90
2018-11-28T15:33:21.303Z,24.27
2018-11-28T15:35:49.705Z,25.63
2018-11-28T15:38:18.118Z,24.77
2018-11-28T15:40:46.504Z,22.70
2018-11-28T15:43:14.907Z,25.17
2018-11-28T15:45:43.304Z,24.73
2018-11-28T15:48:12.039Z,24.20
2018-11-28T15:50:40.527Z,25.17
2018-11-28T15:53:09.028Z,26.60
2018-11-28T15:55:37.642Z,24.07
2018-11-28T15:58:06.214Z,25.57
2018-11-28T16:00:34.674Z,24.33
2018-11-28T16:03:03.116Z,24.37
2018-11-28T16:05:31.636Z,25.60
2018-11-28T16:08:00.154Z,23.57
2018-11-28T16:10:33.782Z,23.70
2018-11-28T16:13:02.216Z,25.13
2018-11-28T16:15:32.700Z,24.47
2018-11-28T16:18:01.130Z,23.57
2018-11-28T16:20:29.687Z,23.27
2018-11-28T16:23:04.219Z,25.47
2018-11-28T16:25:26.593Z,23.73
2018-11-28T16:27:55.002Z,24.47
2018-11-28T16:30:23.471Z,23.77
2018-11-28T16:32:51.906Z,23.87
2018-11-28T16:35:20.306Z,22.80
2018-11-28T16:37:48.803Z,24.30
2018-11-28T16:40:17.229Z,24.20
2018-11-28T16:42:45.643Z,24.47
2018-11-28T16:45:18.368Z,23.10
2018-11-28T16:47:47.359Z,22.83
2018-11-28T16:50:16.727Z,24.67
2018-11-28T16:52:45.971Z,23.37
2018-11-28T16:55:15.522Z,23.20
2018-11-28T16:57:49.242Z,23.30
2018-11-28T17:00:22.064Z,22.87
2018-11-28T17:02:51.046Z,23.60
2018-11-28T17:05:20.607Z,22.50
2018-11-28T17:07:50.082Z,24.83
2018-11-28T17:10:23.901Z,22.97
2018-11-28T17:12:52.899Z,21.63
2018-11-28T17:15:21.454Z,22.07
2018-11-28T17:17:49.951Z,21.70
2018-11-28T17:20:20.576Z,24.40
2018-11-28T17:22:50.185Z,23.43
2018-11-28T17:25:20.970Z,23.23
2018-11-28T17:27:49.434Z,21.43
2018-11-28T17:30:19.434Z,23.63
2018-11-28T17:32:47.908Z,22.20
2018-11-28T17:35:16.891Z,21.97
2018-11-28T17:37:45.327Z,21.70
2018-11-28T17:40:16.660Z,22.43
2018-11-28T17:42:47.448Z,21.90
2018-11-28T17:45:16.949Z,22.47
2018-11-28T17:47:45.425Z,22.30
2018-11-28T17:50:15.938Z,21.83
2018-11-28T17:52:49.428Z,22.07
2018-11-28T17:55:18.259Z,22.20
2018-11-28T17:57:46.662Z,21.60
2018-11-28T18:00:16.169Z,21.77
2018-11-28T18:02:44.628Z,21.63
2018-11-28T18:05:13.044Z,20.47
2018-11-28T18:07:41.459Z,22.60
2018-11-28T18:10:16.300Z,21.07
2018-11-28T18:12:55.986Z,21.27
2018-11-28T18:15:24.471Z,20.70
2018-11-28T18:17:54.946Z,20.33
2018-11-28T18:20:23.871Z,20.80
2018-11-28T18:22:52.403Z,23.27
2018-11-28T18:25:21.271Z,22.13
2018-11-28T18:27:49.973Z,19.97
2018-11-28T18:30:19.160Z,22.07
2018-11-28T18:32:47.667Z,21.83
2018-11-28T18:35:16.148Z,22.13
2018-11-28T18:37:44.576Z,21.17
2018-11-28T18:40:13.462Z,21.97
2018-11-28T18:42:42.632Z,23.50
2018-11-28T18:45:16.652Z,19.70
2018-11-28T18:47:45.105Z,22.40
2018-11-28T18:50:14.170Z,21.20
2018-11-28T18:52:42.612Z,21.03
2018-11-28T18:55:16.574Z,20.10
2018-11-28T18:57:42.439Z,21.53
2018-11-28T19:00:13.547Z,21.77
2018-11-28T19:02:42.735Z,21.90
2018-11-28T19:05:10.619Z,21.10
2018-11-28T19:07:39.119Z,22.93
2018-11-28T19:10:09.775Z,21.77
2018-11-28T19:12:38.339Z,19.97
2018-11-28T19:15:09.466Z,19.90
2018-11-28T19:17:37.867Z,20.90
2018-11-28T19:20:09.172Z,20.33
2018-11-28T19:22:37.611Z,35.93
2018-11-28T19:25:08.445Z,22.07
2018-11-28T19:27:36.950Z,18.83
2018-11-28T19:30:39.343Z,19.27
2018-11-28T19:33:09.276Z,18.53
2018-11-28T19:35:37.783Z,19.00
2018-11-28T19:38:08.322Z,18.17
2018-11-28T19:40:45.788Z,19.17
2018-11-28T19:43:14.190Z,18.87
2018-11-28T19:45:42.714Z,19.47
2018-11-28T19:48:11.184Z,18.37
2018-11-28T19:50:39.762Z,18.73
2018-11-28T19:53:09.142Z,17.30
2018-11-28T19:55:37.644Z,18.57
2018-11-28T19:58:06.808Z,17.70
2018-11-28T20:00:35.498Z,19.03
2018-11-28T20:03:04.263Z,18.03
2018-11-28T20:05:32.740Z,18.53
2018-11-28T20:08:01.179Z,18.27
2018-11-28T20:10:29.816Z,17.37
2018-11-28T20:12:58.252Z,18.40
2018-11-28T20:15:29.821Z,18.97
2018-11-28T20:17:58.472Z,19.13
2018-11-28T20:20:26.973Z,18.93
2018-11-28T20:22:55.397Z,17.57
2018-11-28T20:25:25.652Z,19.50
2018-11-28T20:27:55.671Z,18.73
2018-11-28T20:30:29.840Z,17.87
2018-11-28T20:32:58.400Z,18.40
2018-11-28T20:35:26.829Z,18.20
2018-11-28T20:37:55.319Z,18.27
2018-11-28T20:40:24.025Z,19.67
2018-11-28T20:42:53.652Z,19.67
2018-11-28T20:45:22.143Z,19.07
2018-11-28T20:47:50.622Z,18.57
2018-11-28T20:50:23.329Z,18.70
2018-11-28T20:52:55.059Z,18.33
2018-11-28T20:55:22.780Z,19.30
2018-11-28T20:57:51.237Z,18.87
2018-11-28T21:00:22.256Z,20.63
2018-11-28T21:02:50.680Z,19.20
2018-11-28T21:05:19.749Z,19.50
2018-11-28T21:07:48.176Z,18.87
2018-11-28T21:10:22.226Z,18.97
2018-11-28T21:12:50.642Z,19.93
2018-11-28T21:15:19.101Z,19.73
2018-11-28T21:17:48.058Z,19.10
2018-11-28T21:20:17.677Z,18.53
2018-11-28T21:22:48.699Z,19.53
2018-11-28T21:25:17.129Z,18.30
2018-11-28T21:27:46.154Z,19.07
2018-11-28T21:30:15.688Z,19.73
2018-11-28T21:32:44.547Z,20.30
2018-11-28T21:35:15.350Z,19.47
2018-11-28T21:37:44.074Z,19.33
2018-11-28T21:40:12.798Z,18.77
2018-11-28T21:42:41.240Z,18.23
2018-11-28T21:45:12.209Z,18.80
2018-11-28T21:47:40.660Z,20.03
2018-11-28T21:50:12.365Z,19.03
2018-11-28T21:52:40.806Z,18.93
2018-11-28T21:55:11.296Z,20.23
2018-11-28T21:57:39.765Z,19.27
2018-11-28T22:00:13.987Z,19.37
2018-11-28T22:02:43.010Z,19.93
2018-11-28T22:05:12.564Z,19.47
2018-11-28T22:07:42.530Z,18.23
2018-11-28T22:10:12.903Z,19.17
2018-11-28T22:12:41.346Z,18.17
2018-11-28T22:15:15.580Z,18.30
2018-11-28T22:17:48.394Z,17.33
2018-11-28T22:20:16.865Z,19.27
2018-11-28T22:22:45.249Z,19.30
2018-11-28T22:25:16.601Z,18.37
2018-11-28T22:27:45.002Z,19.43
2018-11-28T22:30:14.783Z,18.50
2018-11-28T22:32:43.436Z,19.23
2018-11-28T22:35:12.042Z,19.10
2018-11-28T22:37:40.498Z,20.20
2018-11-28T22:40:12.495Z,18.97
2018-11-28T22:42:40.899Z,19.83
2018-11-28T22:45:16.698Z,19.57
2018-11-28T22:47:45.126Z,19.63
2018-11-28T22:50:13.974Z,20.10
2018-11-28T22:52:42.442Z,18.10
2018-11-28T22:55:12.955Z,18.70
2018-11-28T22:57:41.389Z,18.53
2018-11-28T23:00:13.494Z,19.00
2018-11-28T23:02:49.319Z,19.93
2018-11-28T23:05:17.975Z,19.43
2018-11-28T23:07:46.408Z,19.17
2018-11-28T23:10:15.062Z,19.33
2018-11-28T23:12:43.466Z,19.07
2018-11-28T23:15:11.875Z,20.33
2018-11-28T23:17:40.270Z,19.40
2018-11-28T23:20:09.735Z,18.40
2018-11-28T23:22:38.152Z,18.43
2018-11-28T23:25:09.376Z,18.90
2018-11-28T23:27:37.843Z,18.17
2018-11-28T23:30:18.494Z,18.93
2018-11-28T23:32:47.647Z,17.70
2018-11-28T23:35:16.158Z,18.77
2018-11-28T23:37:45.651Z,19.50
2018-11-28T23:40:16.718Z,19.20
2018-11-28T23:42:45.184Z,19.53
2018-11-28T23:45:14.257Z,18.67
2018-11-28T23:47:42.683Z,17.40
2018-11-28T23:50:16.609Z,18.17
2018-11-28T23:52:45.150Z,17.77
2018-11-28T23:55:23.270Z,17.03
2018-11-28T23:57:52.203Z,18.33
